createdAt,value
2023-05-19T00:02:36.000Z,23.17
2023-05-19T00:07:35.000Z,22.89
2023-05-19T00:12:36.000Z,20.91
2023-05-19T00:17:36.000Z,20.18
2023-05-19T00:22:36.000Z,20.18
2023-05-19T00:27:36.000Z,19.34
2023-05-19T00:32:36.000Z,18.33
2023-05-19T00:37:36.000Z,17.66
2023-05-19T00:42:36.000Z,16.61
2023-05-19T00:47:36.000Z,14.98
2023-05-19T00:52:35.000Z,13.28
2023-05-19T00:57:36.000Z,11.72
2023-05-19T01:02:36.000Z,9.92
2023-05-19T01:07:35.000Z,9.61
2023-05-19T01:12:36.000Z,8.09
2023-05-19T01:17:36.000Z,7.29
2023-05-19T01:22:35.000Z,7.16
2023-05-19T01:27:36.000Z,8.48
2023-05-19T01:32:36.000Z,9.31
2023-05-19T01:37:35.000Z,9.31
2023-05-19T01:42:36.000Z,9.3
2023-05-19T01:47:36.000Z,8.48
2023-05-19T01:52:35.000Z,6.27
2023-05-19T01:57:37.000Z,6.7
2023-05-19T02:02:37.000Z,6.63
2023-05-19T02:07:35.000Z,6.66
2023-05-19T02:12:36.000Z,8.75
2023-05-19T02:17:36.000Z,10.1
2023-05-19T02:22:36.000Z,9.46
2023-05-19T02:27:36.000Z,7.87
2023-05-19T02:32:37.000Z,8.71
2023-05-19T02:37:36.000Z,9.43
2023-05-19T02:42:36.000Z,9.43
2023-05-19T02:47:36.000Z,8.51
2023-05-19T02:52:36.000Z,5.61
2023-05-19T02:57:36.000Z,5.61
2023-05-19T03:02:36.000Z,5.87
2023-05-19T03:07:35.000Z,5.58
2023-05-19T03:12:35.000Z,5.83
2023-05-19T03:17:36.000Z,7.39
2023-05-19T03:22:35.000Z,7.62
2023-05-19T03:27:36.000Z,9.42
2023-05-19T03:32:36.000Z,7.8
2023-05-19T03:37:36.000Z,9.61
2023-05-19T03:42:36.000Z,7.19
2023-05-19T03:47:35.000Z,7.16
2023-05-19T03:52:35.000Z,7.25
2023-05-19T03:57:36.000Z,7.25
2023-05-19T04:02:36.000Z,7.31
2023-05-19T04:07:36.000Z,7.54
2023-05-19T04:12:36.000Z,8.01
2023-05-19T04:17:36.000Z,7.38
2023-05-19T04:22:35.000Z,8.13
2023-05-19T04:27:37.000Z,9.66
2023-05-19T04:32:36.000Z,8.51
2023-05-19T04:37:35.000Z,8.79
2023-05-19T04:42:37.000Z,8.31
2023-05-19T04:47:35.000Z,8.57
2023-05-19T04:52:36.000Z,8.09
2023-05-19T04:57:36.000Z,9.56
2023-05-19T05:02:36.000Z,9.11
2023-05-19T05:07:36.000Z,9.11
2023-05-19T05:12:36.000Z,9.29
2023-05-19T05:17:36.000Z,9.84
2023-05-19T05:22:36.000Z,9.41
2023-05-19T05:27:36.000Z,10.93
2023-05-19T05:32:36.000Z,9.03
2023-05-19T05:37:35.000Z,9.44
2023-05-19T05:42:39.000Z,9.88
2023-05-19T05:47:36.000Z,9.65
2023-05-19T05:52:36.000Z,11.04
2023-05-19T05:57:36.000Z,10.95
2023-05-19T06:02:36.000Z,11.04
2023-05-19T06:07:36.000Z,10.76
2023-05-19T06:12:35.000Z,11.63
2023-05-19T06:17:35.000Z,11.63
2023-05-19T06:22:36.000Z,10.39
2023-05-19T06:27:36.000Z,11.85
2023-05-19T06:32:36.000Z,14.07
2023-05-19T06:37:35.000Z,13.03
2023-05-19T06:42:36.000Z,11.54
2023-05-19T06:47:35.000Z,12.25
2023-05-19T06:52:36.000Z,13.96
2023-05-19T06:57:35.000Z,14.07
2023-05-19T07:02:36.000Z,12.58
2023-05-19T07:07:36.000Z,14.69
2023-05-19T07:12:35.000Z,12.33
2023-05-19T07:17:36.000Z,10.84
2023-05-19T07:22:35.000Z,10.29
2023-05-19T07:27:35.000Z,10.29
2023-05-19T07:32:36.000Z,10.25
2023-05-19T07:37:36.000Z,10.44
2023-05-19T07:42:35.000Z,14.11
2023-05-19T07:47:36.000Z,15.45
2023-05-19T07:52:36.000Z,13.32
2023-05-19T07:57:36.000Z,12.54
2023-05-19T08:02:35.000Z,13.3
2023-05-19T08:07:37.000Z,13.69
2023-05-19T08:12:35.000Z,14.19
2023-05-19T08:17:35.000Z,15.8
2023-05-19T08:22:36.000Z,17.21
2023-05-19T08:27:35.000Z,17.86
2023-05-19T08:32:37.000Z,15.58
2023-05-19T08:37:36.000Z,15.58
2023-05-19T08:42:36.000Z,17.57
2023-05-19T08:47:36.000Z,18.21
2023-05-19T08:52:36.000Z,16.34
2023-05-19T08:57:36.000Z,17.23
2023-05-19T09:02:35.000Z,17.08
2023-05-19T09:07:35.000Z,18.55
2023-05-19T09:12:36.000Z,17.12
2023-05-19T09:17:35.000Z,16.93
2023-05-19T09:22:36.000Z,16.87
2023-05-19T09:27:36.000Z,18.72
2023-05-19T09:32:36.000Z,17.73
2023-05-19T09:37:36.000Z,17.97
2023-05-19T09:42:35.000Z,19.64
2023-05-19T09:47:36.000Z,21.44
2023-05-19T09:52:36.000Z,21.44
2023-05-19T09:57:39.000Z,17.58
2023-05-19T10:02:36.000Z,16.34
2023-05-19T10:07:36.000Z,16.09
2023-05-19T10:12:35.000Z,15.19
2023-05-19T10:17:36.000Z,12.37
2023-05-19T10:22:36.000Z,11.92
2023-05-19T10:27:36.000Z,10.02
2023-05-19T10:32:37.000Z,9.41
2023-05-19T10:37:36.000Z,9.31
2023-05-19T10:42:35.000Z,8.08
2023-05-19T10:47:36.000Z,7.69
2023-05-19T10:52:36.000Z,7.41
2023-05-19T10:57:36.000Z,7.42
2023-05-19T11:02:36.000Z,7.42
2023-05-19T11:07:36.000Z,6.95
2023-05-19T11:12:36.000Z,6.28
2023-05-19T11:17:36.000Z,6.9
2023-05-19T11:22:36.000Z,5.52
2023-05-19T11:27:37.000Z,6.11
2023-05-19T11:32:36.000Z,5.89
2023-05-19T11:37:35.000Z,4.63
2023-05-19T11:42:36.000Z,5.02
2023-05-19T11:47:36.000Z,4.08
2023-05-19T11:52:36.000Z,4.03
2023-05-19T11:57:36.000Z,7.16
2023-05-19T12:02:36.000Z,3.91
2023-05-19T12:07:36.000Z,4.44
2023-05-19T12:12:36.000Z,5.17
2023-05-19T12:17:35.000Z,5.17
2023-05-19T12:22:36.000Z,6.75
2023-05-19T12:27:35.000Z,4.79
2023-05-19T12:32:36.000Z,3.51
2023-05-19T12:37:36.000Z,3.68
2023-05-19T12:42:35.000Z,5.49
2023-05-19T12:47:35.000Z,5.14
2023-05-19T12:52:35.000Z,3.39
2023-05-19T12:57:36.000Z,3.58
2023-05-19T13:02:36.000Z,3.39
2023-05-19T13:07:36.000Z,2.76
2023-05-19T13:12:35.000Z,4.02
2023-05-19T13:17:36.000Z,4.08
2023-05-19T13:22:36.000Z,4.35
2023-05-19T13:27:36.000Z,3.11
2023-05-19T13:32:35.000Z,3.11
2023-05-19T13:37:35.000Z,2.87
2023-05-19T13:42:35.000Z,3.36
2023-05-19T13:47:35.000Z,3.29
2023-05-19T13:52:39.000Z,2.86
2023-05-19T13:57:36.000Z,3.19
2023-05-19T14:02:36.000Z,2.81
2023-05-19T14:07:36.000Z,4.62
2023-05-19T14:12:49.000Z,2.65
2023-05-19T14:17:36.000Z,2.35
2023-05-19T14:22:36.000Z,3.21
2023-05-19T14:27:36.000Z,3.79
2023-05-19T14:32:39.000Z,2.99
2023-05-19T14:37:36.000Z,2.69
2023-05-19T14:42:36.000Z,2.69
2023-05-19T14:47:37.000Z,2.51
2023-05-19T14:52:35.000Z,2.6
2023-05-19T14:57:36.000Z,2.98
2023-05-19T15:02:39.000Z,3.19
2023-05-19T15:07:36.000Z,2.47
2023-05-19T15:12:35.000Z,2.79
2023-05-19T15:17:36.000Z,3.14
2023-05-19T15:22:36.000Z,3.73
2023-05-19T15:27:36.000Z,2.67
2023-05-19T15:32:36.000Z,3.1
2023-05-19T15:37:35.000Z,3.18
2023-05-19T15:42:35.000Z,3.48
2023-05-19T15:47:36.000Z,2.93
2023-05-19T15:52:36.000Z,2.21
2023-05-19T15:57:35.000Z,2.21
2023-05-19T16:02:36.000Z,3.4
2023-05-19T16:07:35.000Z,3.25
2023-05-19T16:12:36.000Z,2.2
2023-05-19T16:17:36.000Z,2.64
2023-05-19T16:22:35.000Z,3.72
2023-05-19T16:27:35.000Z,3.97
2023-05-19T16:32:36.000Z,2.82
2023-05-19T16:37:36.000Z,2.35
2023-05-19T16:42:36.000Z,2.29
2023-05-19T16:47:36.000Z,2.62
2023-05-19T16:52:36.000Z,2.46
2023-05-19T16:57:36.000Z,2.65
2023-05-19T17:02:35.000Z,4.03
2023-05-19T17:07:37.000Z,4.03
2023-05-19T17:12:36.000Z,2.92
2023-05-19T17:17:35.000Z,3.53
2023-05-19T17:22:38.000Z,3.58
2023-05-19T17:27:36.000Z,3.03
2023-05-19T17:32:36.000Z,2.79
2023-05-19T17:37:36.000Z,3.78
2023-05-19T17:42:36.000Z,3.41
2023-05-19T17:47:36.000Z,2.68
2023-05-19T17:52:35.000Z,7.16
2023-05-19T17:57:35.000Z,3.94
2023-05-19T18:02:36.000Z,3.59
2023-05-19T18:07:35.000Z,2.74
2023-05-19T18:12:36.000Z,3.18
2023-05-19T18:17:36.000Z,3.18
2023-05-19T18:22:36.000Z,3.89
2023-05-19T18:27:35.000Z,3.97
2023-05-19T18:32:36.000Z,5.06
2023-05-19T18:37:35.000Z,4.03
2023-05-19T18:42:35.000Z,5.96
2023-05-19T18:47:35.000Z,4.47
2023-05-19T18:52:35.000Z,5.95
2023-05-19T18:57:36.000Z,5.22
2023-05-19T19:02:36.000Z,6.75
2023-05-19T19:07:36.000Z,3.87
2023-05-19T19:12:35.000Z,5.03
2023-05-19T19:17:36.000Z,4.66
2023-05-19T19:22:36.000Z,3.55
2023-05-19T19:27:36.000Z,3.55
2023-05-19T19:32:36.000Z,3.93
2023-05-19T19:37:36.000Z,5.04
2023-05-19T19:42:39.000Z,6.23
2023-05-19T19:47:36.000Z,6.16
2023-05-19T19:52:36.000Z,6.05
2023-05-19T19:57:36.000Z,7.29
2023-05-19T20:02:36.000Z,5.79
2023-05-19T20:07:36.000Z,5.92
2023-05-19T20:12:36.000Z,4.72
2023-05-19T20:17:36.000Z,4.9
2023-05-19T20:22:36.000Z,4.72
2023-05-19T20:27:35.000Z,4.87
2023-05-19T20:32:36.000Z,4.87
2023-05-19T20:37:35.000Z,4.94
2023-05-19T20:42:35.000Z,5.17
2023-05-19T20:47:39.000Z,5.51
2023-05-19T20:52:36.000Z,5.63
2023-05-19T20:57:38.000Z,5.32
2023-05-19T21:02:35.000Z,5.88
2023-05-19T21:07:35.000Z,6.63
2023-05-19T21:12:36.000Z,12.24
2023-05-19T21:17:35.000Z,10.6
2023-05-19T21:22:35.000Z,7.57
2023-05-19T21:27:36.000Z,6.37
2023-05-19T21:32:36.000Z,5.77
2023-05-19T21:37:36.000Z,5.74
2023-05-19T21:42:35.000Z,5.84
2023-05-19T21:47:36.000Z,5.84
2023-05-19T21:52:35.000Z,5.17
2023-05-19T21:57:35.000Z,5.91
2023-05-19T22:02:36.000Z,5.4
2023-05-19T22:07:36.000Z,5.41
2023-05-19T22:12:35.000Z,5.31
2023-05-19T22:17:37.000Z,4.3
2023-05-19T22:22:36.000Z,5.03
2023-05-19T22:27:36.000Z,6.33
2023-05-19T22:32:36.000Z,5.06
2023-05-19T22:37:36.000Z,4.63
2023-05-19T22:42:35.000Z,4.27
2023-05-19T22:47:35.000Z,5.6
2023-05-19T22:52:36.000Z,5.04
2023-05-19T22:57:35.000Z,5.04
2023-05-19T23:02:36.000Z,4.34
2023-05-19T23:07:35.000Z,4.83
2023-05-19T23:12:36.000Z,6.03
2023-05-19T23:17:36.000Z,5.86
2023-05-19T23:22:35.000Z,4.35
2023-05-19T23:27:36.000Z,4.75
2023-05-19T23:32:36.000Z,4.65
2023-05-19T23:37:36.000Z,4.72
2023-05-19T23:42:35.000Z,4.66
2023-05-19T23:47:36.000Z,5
2023-05-19T23:52:36.000Z,4.66
2023-05-19T23:57:36.000Z,4.92
